createdAt,value
2022-12-18T00:00:08.137Z,45.92
2022-12-18T00:02:36.610Z,47.53
2022-12-18T00:05:05.698Z,46.20
2022-12-18T00:07:36.216Z,39.63
2022-12-18T00:10:05.422Z,42.95
2022-12-18T00:12:34.828Z,36.17
2022-12-18T00:15:04.903Z,65.10
2022-12-18T00:17:33.430Z,146.70
2022-12-18T00:20:01.922Z,38.40
2022-12-18T00:22:30.310Z,35.67
2022-12-18T00:24:58.748Z,130.95
2022-12-18T00:27:27.102Z,94.00
2022-12-18T00:29:55.489Z,51.70
2022-12-18T00:32:23.914Z,36.42
2022-12-18T00:34:52.332Z,52.35
2022-12-18T00:37:20.715Z,163.55
2022-12-18T00:39:50.267Z,91.43
2022-12-18T00:42:37.176Z,44.35
2022-12-18T00:45:12.109Z,182.30
2022-12-18T00:47:41.447Z,267.33
2022-12-18T00:50:10.751Z,136.48
2022-12-18T00:52:39.180Z,141.15
2022-12-18T00:55:08.039Z,156.93
2022-12-18T00:57:36.662Z,72.38
2022-12-18T01:00:07.236Z,68.32
2022-12-18T01:02:36.041Z,35.45
2022-12-18T01:05:05.464Z,31.90
2022-12-18T01:07:33.886Z,35.28
2022-12-18T01:10:02.309Z,30.20
2022-12-18T01:12:30.708Z,30.75
2022-12-18T01:14:59.256Z,29.05
2022-12-18T01:17:27.763Z,36.22
2022-12-18T01:19:56.182Z,31.73
2022-12-18T01:22:24.745Z,27.48
2022-12-18T01:24:53.150Z,37.17
2022-12-18T01:27:21.605Z,35.15
2022-12-18T01:29:50.264Z,28.58
2022-12-18T01:32:18.714Z,33.15
2022-12-18T01:34:47.186Z,30.17
2022-12-18T01:37:15.639Z,30.67
2022-12-18T01:39:44.127Z,31.58
2022-12-18T01:42:15.696Z,28.13
2022-12-18T01:45:00.898Z,30.25
2022-12-18T01:47:44.603Z,33.65
2022-12-18T01:50:34.726Z,28.17
2022-12-18T01:53:08.900Z,32.90
2022-12-18T01:55:43.884Z,32.17
2022-12-18T01:58:12.397Z,30.42
2022-12-18T02:00:41.035Z,33.22
2022-12-18T02:03:09.792Z,29.92
2022-12-18T02:05:50.283Z,30.08
2022-12-18T02:08:29.720Z,30.65
2022-12-18T02:11:29.803Z,26.63
2022-12-18T02:13:58.140Z,29.90
2022-12-18T02:16:41.276Z,26.98
2022-12-18T02:19:30.143Z,28.48
2022-12-18T02:22:11.304Z,27.55
2022-12-18T02:25:07.453Z,29.90
2022-12-18T02:27:37.955Z,24.70
2022-12-18T02:30:09.193Z,31.50
2022-12-18T02:32:43.854Z,26.93
2022-12-18T02:35:16.382Z,25.48
2022-12-18T02:37:47.800Z,28.25
2022-12-18T02:40:18.231Z,28.60
2022-12-18T02:42:47.580Z,26.10
2022-12-18T02:45:16.097Z,23.05
2022-12-18T02:47:48.300Z,23.70
2022-12-18T02:53:02.130Z,25.63
2022-12-18T02:55:51.673Z,27.42
2022-12-18T02:58:31.354Z,25.27
2022-12-18T03:01:08.302Z,21.73
2022-12-18T03:03:45.162Z,24.42
2022-12-18T03:06:50.722Z,24.10
2022-12-18T03:09:27.462Z,29.73
2022-12-18T03:12:21.393Z,25.60
2022-12-18T03:15:20.137Z,24.33
2022-12-18T03:18:02.481Z,22.15
2022-12-18T03:20:33.818Z,23.80
2022-12-18T03:23:12.036Z,26.85
2022-12-18T03:25:44.010Z,20.85
2022-12-18T03:28:20.661Z,22.42
2022-12-18T03:30:54.804Z,24.90
2022-12-18T03:33:36.124Z,25.88
2022-12-18T03:36:05.052Z,24.63
2022-12-18T03:38:34.742Z,28.70
2022-12-18T03:41:06.173Z,24.00
2022-12-18T03:44:05.028Z,20.35
2022-12-18T03:46:53.636Z,24.90
2022-12-18T03:49:44.036Z,22.52
2022-12-18T03:52:27.615Z,23.48
2022-12-18T03:54:58.844Z,20.95
2022-12-18T03:57:30.547Z,25.48
2022-12-18T04:00:07.356Z,22.70
2022-12-18T04:02:39.122Z,23.85
2022-12-18T04:05:09.880Z,21.60
2022-12-18T04:07:40.187Z,22.15
2022-12-18T04:10:12.348Z,24.88
2022-12-18T04:12:40.782Z,25.40
2022-12-18T04:15:10.282Z,23.98
2022-12-18T04:17:40.046Z,23.38
2022-12-18T04:20:09.830Z,22.25
2022-12-18T04:22:38.246Z,22.40
2022-12-18T04:25:06.975Z,23.60
2022-12-18T04:27:35.672Z,20.83
2022-12-18T04:30:04.654Z,23.92
2022-12-18T04:32:34.727Z,19.80
2022-12-18T04:35:05.152Z,20.92
2022-12-18T04:37:33.560Z,23.52
2022-12-18T04:40:03.031Z,23.67
2022-12-18T04:42:31.516Z,18.05
2022-12-18T04:44:59.986Z,24.25
2022-12-18T04:47:28.444Z,21.77
2022-12-18T04:49:57.010Z,21.17
2022-12-18T04:52:25.566Z,19.20
2022-12-18T04:54:53.982Z,21.45
2022-12-18T04:57:22.389Z,21.38
2022-12-18T04:59:50.844Z,19.92
2022-12-18T05:02:19.435Z,20.05
2022-12-18T05:04:48.111Z,22.27
2022-12-18T05:07:16.670Z,20.90
2022-12-18T05:09:45.089Z,17.90
2022-12-18T05:12:13.647Z,17.88
2022-12-18T05:14:42.180Z,18.77
2022-12-18T05:17:10.716Z,20.23
2022-12-18T05:19:39.406Z,23.70
2022-12-18T05:22:07.766Z,18.17
2022-12-18T05:24:36.407Z,18.33
2022-12-18T05:27:04.893Z,18.02
2022-12-18T05:29:33.307Z,20.45
2022-12-18T05:32:01.818Z,16.17
2022-12-18T05:34:30.290Z,18.60
2022-12-18T05:36:58.677Z,19.38
2022-12-18T05:39:27.211Z,20.10
2022-12-18T05:41:55.606Z,20.20
2022-12-18T05:44:24.072Z,18.15
2022-12-18T05:46:52.440Z,17.73
2022-12-18T05:49:20.974Z,20.95
2022-12-18T05:51:49.345Z,20.38
2022-12-18T05:54:17.966Z,16.63
2022-12-18T05:56:48.787Z,20.08
2022-12-18T05:59:17.555Z,21.48
2022-12-18T06:01:46.811Z,15.65
2022-12-18T06:04:15.593Z,20.15
2022-12-18T06:06:44.117Z,19.77
2022-12-18T06:09:12.879Z,18.90
2022-12-18T06:11:41.402Z,20.17
2022-12-18T06:14:10.809Z,21.75
2022-12-18T06:16:39.285Z,19.00
2022-12-18T06:19:07.726Z,16.80
2022-12-18T06:21:36.218Z,17.40
2022-12-18T06:24:04.994Z,18.65
2022-12-18T06:26:33.435Z,21.05
2022-12-18T06:29:01.794Z,18.95
2022-12-18T06:31:30.308Z,18.88
2022-12-18T06:33:59.298Z,21.33
2022-12-18T06:36:27.741Z,22.70
2022-12-18T06:38:58.435Z,23.55
2022-12-18T06:41:27.871Z,22.05
2022-12-18T06:43:59.707Z,21.65
2022-12-18T06:46:28.317Z,17.55
2022-12-18T06:48:56.751Z,21.10
2022-12-18T06:51:25.636Z,20.67
2022-12-18T06:53:55.054Z,20.00
2022-12-18T06:56:23.453Z,20.00
2022-12-18T06:58:51.887Z,21.88
2022-12-18T07:01:20.599Z,17.25
2022-12-18T07:03:54.557Z,18.83
2022-12-18T07:06:25.584Z,20.85
2022-12-18T07:08:55.259Z,21.70
2022-12-18T07:11:24.242Z,18.75
2022-12-18T07:13:53.400Z,17.35
2022-12-18T07:16:25.381Z,19.88
2022-12-18T07:18:56.461Z,17.90
2022-12-18T07:21:26.174Z,21.10
2022-12-18T07:23:54.895Z,20.38
2022-12-18T07:26:24.557Z,21.77
2022-12-18T07:28:56.565Z,19.40
2022-12-18T07:31:25.561Z,20.67
2022-12-18T07:33:54.233Z,24.73
2022-12-18T07:36:22.626Z,21.00
2022-12-18T07:38:52.925Z,21.13
2022-12-18T07:41:26.462Z,20.98
2022-12-18T07:43:54.905Z,23.15
2022-12-18T07:46:23.810Z,18.25
2022-12-18T07:48:52.222Z,21.23
2022-12-18T07:51:20.695Z,21.75
2022-12-18T07:53:52.472Z,23.90
2022-12-18T07:56:30.327Z,18.67
2022-12-18T07:59:00.952Z,22.23
2022-12-18T08:01:29.561Z,21.40
2022-12-18T08:03:59.581Z,20.98
2022-12-18T08:06:28.029Z,17.85
2022-12-18T08:08:57.062Z,20.35
2022-12-18T08:11:28.560Z,24.67
2022-12-18T08:13:58.391Z,21.02
2022-12-18T08:16:27.227Z,19.48
2022-12-18T08:18:57.140Z,20.00
2022-12-18T08:21:30.548Z,21.27
2022-12-18T08:24:01.814Z,25.33
2022-12-18T08:26:32.518Z,22.47
2022-12-18T08:29:01.818Z,19.60
2022-12-18T08:31:32.132Z,19.70
2022-12-18T08:34:00.828Z,21.27
2022-12-18T08:36:29.486Z,21.08
2022-12-18T08:38:58.119Z,23.27
2022-12-18T08:41:27.492Z,20.63
2022-12-18T08:44:14.706Z,24.33
2022-12-18T08:46:44.414Z,23.33
2022-12-18T08:49:12.968Z,23.02
2022-12-18T08:51:42.473Z,22.65
2022-12-18T08:54:14.571Z,23.02
2022-12-18T08:56:43.060Z,22.00
2022-12-18T08:59:17.572Z,24.90
2022-12-18T09:01:48.958Z,23.13
2022-12-18T09:04:17.857Z,26.92
2022-12-18T09:06:46.633Z,25.40
2022-12-18T09:09:15.315Z,24.50
2022-12-18T09:11:45.843Z,27.13
2022-12-18T09:14:14.613Z,24.17
2022-12-18T09:16:43.398Z,23.27
2022-12-18T09:19:12.179Z,22.00
2022-12-18T09:21:44.796Z,21.52
2022-12-18T09:24:17.503Z,22.42
2022-12-18T09:26:47.319Z,24.75
2022-12-18T09:29:17.720Z,23.75
2022-12-18T09:31:48.102Z,21.13
2022-12-18T09:34:17.691Z,21.42
2022-12-18T09:36:46.426Z,25.27
2022-12-18T09:39:16.020Z,23.45
2022-12-18T09:41:56.771Z,22.88
2022-12-18T09:44:32.487Z,22.13
2022-12-18T09:47:13.500Z,24.83
2022-12-18T09:49:50.303Z,23.63
2022-12-18T09:52:31.481Z,24.35
2022-12-18T09:55:06.323Z,22.65
2022-12-18T09:57:41.871Z,24.08
2022-12-18T10:00:20.609Z,21.75
2022-12-18T10:02:51.790Z,31.77
2022-12-18T10:05:31.817Z,24.90
2022-12-18T10:08:08.802Z,26.35
2022-12-18T10:11:04.289Z,23.17
2022-12-18T10:13:46.996Z,21.95
2022-12-18T10:16:27.317Z,25.38
2022-12-18T10:19:11.186Z,25.15
2022-12-18T10:21:50.462Z,24.00
2022-12-18T10:24:33.518Z,23.55
2022-12-18T10:27:18.963Z,22.98
2022-12-18T10:29:47.738Z,22.20
2022-12-18T10:32:22.786Z,23.15
2022-12-18T10:35:00.172Z,22.23
2022-12-18T10:37:30.963Z,25.65
2022-12-18T10:40:18.238Z,25.70
2022-12-18T10:43:14.488Z,19.83
2022-12-18T10:45:58.279Z,23.60
2022-12-18T10:48:27.810Z,22.42
2022-12-18T10:51:12.959Z,20.08
2022-12-18T10:53:43.624Z,19.20
2022-12-18T10:56:12.751Z,21.13
2022-12-18T10:58:41.554Z,19.48
2022-12-18T11:01:21.260Z,22.30
2022-12-18T11:04:01.671Z,23.80
2022-12-18T11:06:30.860Z,21.80
2022-12-18T11:09:19.689Z,23.27
2022-12-18T11:11:54.364Z,22.00
2022-12-18T11:14:26.003Z,20.65
2022-12-18T11:17:24.733Z,22.13
2022-12-18T11:19:45.039Z,24.90
2022-12-18T11:22:28.964Z,22.58
2022-12-18T11:25:32.152Z,21.33
2022-12-18T11:28:00.566Z,21.63
2022-12-18T11:30:34.821Z,20.73
2022-12-18T11:33:21.813Z,21.13
2022-12-18T11:36:00.901Z,20.00
2022-12-18T11:38:39.084Z,27.48
2022-12-18T11:41:57.536Z,22.10
2022-12-18T11:44:46.547Z,23.42
2022-12-18T11:47:40.140Z,22.08
2022-12-18T11:50:18.507Z,22.10
2022-12-18T11:52:48.501Z,22.95
2022-12-18T11:55:35.075Z,21.55
2022-12-18T11:58:31.139Z,23.33
2022-12-18T12:01:17.573Z,18.17
2022-12-18T12:03:49.684Z,20.48
2022-12-18T12:06:40.094Z,26.15
2022-12-18T12:09:16.630Z,20.70
2022-12-18T12:12:15.387Z,20.80
2022-12-18T12:14:43.824Z,20.13
2022-12-18T12:17:27.435Z,24.00
2022-12-18T12:20:18.006Z,22.13
2022-12-18T12:23:00.260Z,22.83
2022-12-18T12:26:05.195Z,22.33
2022-12-18T12:28:36.753Z,20.98
2022-12-18T12:31:47.690Z,20.55
2022-12-18T12:34:42.567Z,24.75
2022-12-18T12:37:33.748Z,20.83
2022-12-18T12:40:15.361Z,21.75
2022-12-18T12:43:14.361Z,21.80
2022-12-18T12:45:54.893Z,22.63
2022-12-18T12:48:26.193Z,23.52
2022-12-18T12:50:56.081Z,20.27
2022-12-18T12:53:29.911Z,26.58
2022-12-18T12:55:58.967Z,23.77
2022-12-18T12:58:46.337Z,25.33
2022-12-18T13:01:42.034Z,28.17
2022-12-18T13:04:37.392Z,23.63
2022-12-18T13:07:17.415Z,26.20
2022-12-18T13:10:13.200Z,24.13
2022-12-18T13:12:56.805Z,25.25
2022-12-18T13:15:55.693Z,22.90
2022-12-18T13:18:26.326Z,26.85
2022-12-18T13:20:58.488Z,46.28
2022-12-18T13:23:37.386Z,46.08
2022-12-18T13:26:11.951Z,21.23
2022-12-18T13:28:46.927Z,34.25
2022-12-18T13:31:41.967Z,26.98
2022-12-18T13:34:28.294Z,45.17
2022-12-18T13:37:32.839Z,22.50
2022-12-18T13:40:01.355Z,19.08
2022-12-18T13:42:59.815Z,20.75
2022-12-18T13:45:47.575Z,26.67
2022-12-18T13:48:25.119Z,23.70
2022-12-18T13:51:01.292Z,28.45
2022-12-18T13:53:52.822Z,23.23
2022-12-18T13:56:30.962Z,31.97
2022-12-18T13:59:24.899Z,22.98
2022-12-18T14:02:06.331Z,23.38
2022-12-18T14:04:36.911Z,30.65
2022-12-18T14:07:11.536Z,23.60
2022-12-18T14:09:49.870Z,27.17
2022-12-18T14:12:57.692Z,31.05
2022-12-18T14:15:56.656Z,24.20
2022-12-18T14:18:40.105Z,24.80
2022-12-18T14:21:30.677Z,25.65
2022-12-18T14:24:14.719Z,22.48
2022-12-18T14:26:44.329Z,22.52
2022-12-18T14:29:31.019Z,20.50
2022-12-18T14:32:17.747Z,22.40
2022-12-18T14:34:55.049Z,23.30
2022-12-18T14:37:28.314Z,22.42
2022-12-18T14:39:59.793Z,22.40
2022-12-18T14:45:41.793Z,30.05
2022-12-18T14:48:39.777Z,28.10
2022-12-18T14:51:11.254Z,33.40
2022-12-18T14:53:54.148Z,50.00
2022-12-18T14:56:30.106Z,40.85
2022-12-18T14:59:15.173Z,21.42
2022-12-18T15:01:51.525Z,62.67
2022-12-18T15:04:41.709Z,37.40
2022-12-18T15:07:17.794Z,31.85
2022-12-18T15:10:17.793Z,61.70
2022-12-18T15:13:07.040Z,30.27
2022-12-18T15:15:38.544Z,37.75
2022-12-18T15:18:11.458Z,38.67
2022-12-18T15:20:54.356Z,25.63
2022-12-18T15:23:23.004Z,23.40
2022-12-18T15:26:06.909Z,30.05
2022-12-18T15:28:44.126Z,24.23
2022-12-18T15:31:13.089Z,21.40
2022-12-18T15:34:00.559Z,24.13
2022-12-18T15:36:30.415Z,29.23
2022-12-18T15:39:04.671Z,22.00
2022-12-18T15:41:37.108Z,21.58
2022-12-18T15:44:23.861Z,73.85
2022-12-18T15:46:52.232Z,31.27
2022-12-18T15:49:20.768Z,17.40
2022-12-18T15:51:54.188Z,21.58
2022-12-18T15:54:42.792Z,21.38
2022-12-18T15:57:24.097Z,25.75
2022-12-18T15:59:54.156Z,23.50
2022-12-18T16:02:23.935Z,22.83
2022-12-18T16:04:53.324Z,23.63
2022-12-18T16:07:25.122Z,27.77
2022-12-18T16:09:55.186Z,25.10
2022-12-18T16:12:26.484Z,25.88
2022-12-18T16:14:54.930Z,26.85
2022-12-18T16:17:23.405Z,24.48
2022-12-18T16:19:51.811Z,27.88
2022-12-18T16:22:25.871Z,25.10
2022-12-18T16:24:55.511Z,27.08
2022-12-18T16:27:25.091Z,23.92
2022-12-18T16:29:53.506Z,34.10
2022-12-18T16:32:23.405Z,23.02
2022-12-18T16:34:52.063Z,26.20
2022-12-18T16:37:20.524Z,29.20
2022-12-18T16:39:48.982Z,30.45
2022-12-18T16:42:20.108Z,26.00
2022-12-18T16:44:50.184Z,25.85
2022-12-18T16:47:19.088Z,27.90
2022-12-18T16:49:49.064Z,25.63
2022-12-18T16:52:18.709Z,25.48
2022-12-18T16:54:47.335Z,33.72
2022-12-18T16:57:19.058Z,31.35
2022-12-18T16:59:47.791Z,25.63
2022-12-18T17:02:22.830Z,26.25
2022-12-18T17:04:57.415Z,26.50
2022-12-18T17:07:26.962Z,29.95
2022-12-18T17:09:56.388Z,23.70
2022-12-18T17:12:25.079Z,29.77
2022-12-18T17:14:53.578Z,41.10
2022-12-18T17:17:23.286Z,34.30
2022-12-18T17:19:52.810Z,24.90
2022-12-18T17:22:23.173Z,30.63
2022-12-18T17:24:51.804Z,24.02
2022-12-18T17:27:20.240Z,25.90
2022-12-18T17:29:49.234Z,62.63
2022-12-18T17:32:18.269Z,45.17
2022-12-18T17:34:48.051Z,59.95
2022-12-18T17:37:16.480Z,30.13
2022-12-18T17:39:44.979Z,35.75
2022-12-18T17:42:15.736Z,22.67
2022-12-18T17:44:44.948Z,24.23
2022-12-18T17:47:14.134Z,25.63
2022-12-18T17:49:42.758Z,22.77
2022-12-18T17:52:11.407Z,25.45
2022-12-18T17:54:41.929Z,22.30
2022-12-18T17:57:10.528Z,25.23
2022-12-18T17:59:38.944Z,25.15
2022-12-18T18:02:11.334Z,38.80
2022-12-18T18:04:40.770Z,38.53
2022-12-18T18:07:10.292Z,23.42
2022-12-18T18:09:38.755Z,25.33
2022-12-18T18:12:25.628Z,28.60
2022-12-18T18:14:54.425Z,25.70
2022-12-18T18:17:23.216Z,24.63
2022-12-18T18:19:51.569Z,23.77
2022-12-18T18:22:20.072Z,23.92
2022-12-18T18:24:48.761Z,28.08
2022-12-18T18:27:17.273Z,31.45
2022-12-18T18:29:45.818Z,28.05
2022-12-18T18:32:14.240Z,25.77
2022-12-18T18:34:42.744Z,28.58
2022-12-18T18:37:12.057Z,25.00
2022-12-18T18:39:40.597Z,27.13
2022-12-18T18:42:09.107Z,28.65
2022-12-18T18:44:37.472Z,26.45
2022-12-18T18:47:09.409Z,31.08
2022-12-18T18:49:38.294Z,33.65
2022-12-18T18:52:07.395Z,26.85
2022-12-18T18:54:35.818Z,24.48
2022-12-18T18:57:20.241Z,39.72
2022-12-18T18:59:49.506Z,28.13
2022-12-18T19:02:18.163Z,37.83
2022-12-18T19:04:47.127Z,26.38
2022-12-18T19:07:29.346Z,23.33
2022-12-18T19:10:04.092Z,23.75
2022-12-18T19:12:53.697Z,23.02
2022-12-18T19:15:22.288Z,23.52
2022-12-18T19:17:50.993Z,27.98
2022-12-18T19:20:19.655Z,35.40
2022-12-18T19:22:55.340Z,32.08
2022-12-18T19:25:38.412Z,26.55
2022-12-18T19:28:13.246Z,25.90
2022-12-18T19:30:58.975Z,25.35
2022-12-18T19:33:45.202Z,39.78
2022-12-18T19:36:22.930Z,29.88
2022-12-18T19:38:54.263Z,36.25
2022-12-18T19:41:23.958Z,67.25
2022-12-18T19:43:54.142Z,26.95
2022-12-18T19:46:23.764Z,29.45
2022-12-18T19:48:52.417Z,23.90
2022-12-18T19:51:24.679Z,26.33
2022-12-18T19:56:32.548Z,30.00
2022-12-18T19:59:02.767Z,36.67
2022-12-18T20:01:31.487Z,32.25
2022-12-18T20:04:01.132Z,24.33
2022-12-18T20:06:55.558Z,27.05
2022-12-18T20:09:24.111Z,28.65
2022-12-18T20:11:53.528Z,27.98
2022-12-18T20:14:23.045Z,28.10
2022-12-18T20:16:52.542Z,28.40
2022-12-18T20:19:22.324Z,42.65
2022-12-18T20:21:51.148Z,45.42
2022-12-18T20:24:19.629Z,31.08
2022-12-18T20:26:48.037Z,31.98
2022-12-18T20:29:16.441Z,29.02
2022-12-18T20:31:44.891Z,27.80
2022-12-18T20:34:13.461Z,26.38
2022-12-18T20:36:42.308Z,33.55
2022-12-18T20:39:13.301Z,32.42
2022-12-18T20:41:41.939Z,31.10
2022-12-18T20:44:23.112Z,33.45
2022-12-18T20:46:57.882Z,31.38
2022-12-18T20:49:27.538Z,31.90
2022-12-18T20:51:57.858Z,33.22
2022-12-18T20:54:27.609Z,29.58
2022-12-18T20:56:56.791Z,47.97
2022-12-18T20:59:25.765Z,36.55
2022-12-18T21:01:54.876Z,37.58
2022-12-18T21:04:23.981Z,55.97
2022-12-18T21:06:59.142Z,32.28
2022-12-18T21:09:37.739Z,53.08
2022-12-18T21:12:34.895Z,57.03
2022-12-18T21:15:13.090Z,35.95
2022-12-18T21:17:44.411Z,31.50
2022-12-18T21:20:18.146Z,31.70
2022-12-18T21:22:49.187Z,35.05
2022-12-18T21:25:17.907Z,35.08
2022-12-18T21:27:46.293Z,35.90
2022-12-18T21:30:15.061Z,34.17
2022-12-18T21:32:43.644Z,30.13
2022-12-18T21:35:12.234Z,36.35
2022-12-18T21:37:40.663Z,39.97
2022-12-18T21:40:09.502Z,34.65
2022-12-18T21:42:56.575Z,40.72
2022-12-18T21:45:24.923Z,36.47
2022-12-18T21:47:53.315Z,30.50
2022-12-18T21:50:21.735Z,42.35
2022-12-18T21:52:50.153Z,33.38
2022-12-18T21:55:18.628Z,33.72
2022-12-18T21:57:47.040Z,54.08
2022-12-18T22:00:18.371Z,36.45
2022-12-18T22:03:05.647Z,52.38
2022-12-18T22:05:37.235Z,57.10
2022-12-18T22:08:06.859Z,38.95
2022-12-18T22:10:36.502Z,49.65
2022-12-18T22:13:06.729Z,47.70
2022-12-18T22:15:35.238Z,75.65
2022-12-18T22:18:03.798Z,54.10
2022-12-18T22:20:32.361Z,46.05
2022-12-18T22:23:05.721Z,38.75
2022-12-18T22:25:36.273Z,31.30
2022-12-18T22:28:26.821Z,43.83
2022-12-18T22:30:59.142Z,39.55
2022-12-18T22:33:28.368Z,45.83
2022-12-18T22:35:56.783Z,38.80
2022-12-18T22:38:25.340Z,35.40
2022-12-18T22:40:54.739Z,32.13
2022-12-18T22:43:23.287Z,29.23
2022-12-18T22:45:51.664Z,29.02
2022-12-18T22:48:20.393Z,28.10
2022-12-18T22:50:49.561Z,32.05
2022-12-18T22:53:19.329Z,35.38
2022-12-18T22:55:47.769Z,32.03
2022-12-18T22:58:16.154Z,32.88
2022-12-18T23:00:44.624Z,29.83
2022-12-18T23:03:13.209Z,32.88
2022-12-18T23:05:41.702Z,36.67
2022-12-18T23:08:10.165Z,29.52
2022-12-18T23:10:39.381Z,29.60
2022-12-18T23:13:07.797Z,32.83
2022-12-18T23:15:41.972Z,29.77
2022-12-18T23:18:10.379Z,27.33
2022-12-18T23:20:38.877Z,25.20
2022-12-18T23:23:08.687Z,28.25
2022-12-18T23:25:37.394Z,28.27
2022-12-18T23:28:06.357Z,31.20
2022-12-18T23:30:35.090Z,30.10
2022-12-18T23:33:03.583Z,26.88
2022-12-18T23:35:32.058Z,30.90
2022-12-18T23:38:00.874Z,33.33
2022-12-18T23:40:29.923Z,29.70
2022-12-18T23:42:59.129Z,31.77
2022-12-18T23:45:27.546Z,29.02
2022-12-18T23:47:56.111Z,27.92
2022-12-18T23:50:29.438Z,30.58
2022-12-18T23:53:04.878Z,31.75
2022-12-18T23:55:39.682Z,28.92
2022-12-18T23:58:19.367Z,31.90
